Time;durP1;ratioP1;P1;durP2;ratioP2;P2;SDS_P1;SDS_P2;PMS_P1;PMS_P2;Temp;Humidity;BMP_temperature;BMP_pressure;BME280_temperature;BME280_humidity;BME280_pressure;Samples;Min_cycle;Max_cycle;Signal;HPM_P1;HPM_P2
2022/12/31 00:01:30;;;;;;;221.60;113.87;;;;;;;;;;5076458;28;20935;-72
2022/12/31 00:04:00;;;;;;;237.87;120.17;;;;;;;;;;5058878;28;20488;-72
2022/12/31 00:06:31;;;;;;;240.03;119.03;;;;;;;;;;5056789;28;20458;-72
2022/12/31 00:09:00;;;;;;;222.03;116.07;;;;;;;;;;5057165;28;20473;-72
2022/12/31 00:11:29;;;;;;;230.60;115.23;;;;;;;;;;5056800;28;20452;-72
2022/12/31 00:13:56;;;;;;;261.80;121.50;;;;;;;;;;5075642;28;20563;-72
2022/12/31 00:16:26;;;;;;;251.63;122.67;;;;;;;;;;5076886;28;20485;-72
2022/12/31 00:18:55;;;;;;;265.80;121.20;;;;;;;;;;5076218;28;20468;-72
2022/12/31 00:21:23;;;;;;;246.47;113.70;;;;;;;;;;5076842;28;20488;-72
2022/12/31 00:23:50;;;;;;;258.10;119.23;;;;;;;;;;5075522;28;20453;-72
2022/12/31 00:26:19;;;;;;;257.93;118.77;;;;;;;;;;5057004;28;20888;-72
2022/12/31 00:28:47;;;;;;;254.70;123.63;;;;;;;;;;5056688;28;20516;-72
2022/12/31 00:31:16;;;;;;;248.87;117.17;;;;;;;;;;5056290;28;20472;-72
2022/12/31 00:33:45;;;;;;;216.53;105.13;;;;;;;;;;5088701;28;20538;-72
2022/12/31 00:36:14;;;;;;;221.27;111.80;;;;;;;;;;5089822;28;20454;-72
2022/12/31 00:38:42;;;;;;;255.90;127.60;;;;;;;;;;5056511;28;20485;-72
2022/12/31 00:41:10;;;;;;;257.17;126.37;;;;;;;;;;5055910;28;20481;-72
2022/12/31 00:43:38;;;;;;;4.00;3.60;;;;;;;;;;5056141;28;20467;-72
2022/12/31 00:46:06;;;;;;;36.50;14.43;;;;;;;;;;5056696;28;20468;-72
2022/12/31 00:48:34;;;;;;;243.23;132.83;;;;;;;;;;5056500;28;20748;-73
2022/12/31 00:51:03;;;;;;;237.37;122.90;;;;;;;;;;5056641;28;20463;-72
2022/12/31 00:53:31;;;;;;;234.53;125.03;;;;;;;;;;5056167;28;20465;-73
2022/12/31 00:56:02;;;;;;;238.70;120.60;;;;;;;;;;5059070;28;20555;-73
2022/12/31 00:58:30;;;;;;;237.43;125.80;;;;;;;;;;5096541;28;20821;-72
2022/12/31 01:00:58;;;;;;;251.20;128.30;;;;;;;;;;5096302;28;20486;-72
2022/12/31 01:03:25;;;;;;;260.87;131.53;;;;;;;;;;5063141;28;20449;-72
2022/12/31 01:05:53;;;;;;;252.00;121.93;;;;;;;;;;5056338;28;20854;-72
2022/12/31 01:08:22;;;;;;;256.80;130.43;;;;;;;;;;5056075;28;20454;-72
2022/12/31 01:13:35;;;;;;;252.63;126.10;;;;;;;;;;5076131;28;20451;-72
2022/12/31 01:16:07;;;;;;;213.60;118.90;;;;;;;;;;5076079;28;20562;-72
2022/12/31 01:18:35;;;;;;;244.33;133.13;;;;;;;;;;5075984;28;20499;-72
2022/12/31 01:21:03;;;;;;;236.70;123.53;;;;;;;;;;5076576;28;20575;-72
2022/12/31 01:23:35;;;;;;;230.80;124.57;;;;;;;;;;5076690;28;20872;-72
2022/12/31 01:26:04;;;;;;;237.17;128.20;;;;;;;;;;5075680;28;20532;-73
2022/12/31 01:28:32;;;;;;;86.83;54.17;;;;;;;;;;5076949;28;20471;-73
2022/12/31 01:31:00;;;;;;;234.60;130.13;;;;;;;;;;5076650;28;21099;-73
2022/12/31 01:33:31;;;;;;;238.20;120.63;;;;;;;;;;5077235;28;20457;-72
2022/12/31 01:36:02;;;;;;;254.10;132.17;;;;;;;;;;5061877;28;20467;-72
2022/12/31 01:38:31;;;;;;;224.63;119.20;;;;;;;;;;5056126;28;20485;-72
2022/12/31 01:41:00;;;;;;;220.07;131.83;;;;;;;;;;5056329;28;20504;-73
2022/12/31 01:43:43;;;;;;;221.30;129.30;;;;;;;;;;5056179;28;20544;-73
2022/12/31 01:46:11;;;;;;;236.00;122.70;;;;;;;;;;5055715;28;20880;-72
2022/12/31 01:48:39;;;;;;;231.73;119.53;;;;;;;;;;5057141;28;20924;-73
2022/12/31 01:51:08;;;;;;;237.17;125.00;;;;;;;;;;5059406;28;20471;-73
2022/12/31 01:53:38;;;;;;;218.50;122.00;;;;;;;;;;5059951;28;20457;-73
2022/12/31 01:56:07;;;;;;;233.07;128.50;;;;;;;;;;5063034;28;20536;-73
2022/12/31 01:58:37;;;;;;;231.27;137.53;;;;;;;;;;5072410;28;20471;-73
2022/12/31 02:01:05;;;;;;;223.10;132.90;;;;;;;;;;5077939;28;20488;-72
2022/12/31 02:03:33;;;;;;;214.00;124.83;;;;;;;;;;5059279;28;21046;-72
2022/12/31 02:06:04;;;;;;;216.20;128.37;;;;;;;;;;5063541;28;20759;-73
2022/12/31 02:08:32;;;;;;;217.40;124.50;;;;;;;;;;5059532;28;20461;-73
2022/12/31 02:11:01;;;;;;;217.83;139.37;;;;;;;;;;5059275;28;20480;-73
2022/12/31 02:13:31;;;;;;;220.07;126.00;;;;;;;;;;5059875;28;20466;-74
2022/12/31 02:16:03;;;;;;;213.97;133.03;;;;;;;;;;5058760;28;20962;-73
2022/12/31 02:18:33;;;;;;;217.00;139.10;;;;;;;;;;5059489;28;20487;-73
2022/12/31 02:21:24;;;;;;;206.83;129.70;;;;;;;;;;5067252;28;20924;-73
2022/12/31 02:24:16;;;;;;;221.00;137.80;;;;;;;;;;5058713;28;20453;-73
2022/12/31 02:27:01;;;;;;;215.50;132.27;;;;;;;;;;5058649;28;20461;-73
2022/12/31 02:29:59;;;;;;;224.93;136.20;;;;;;;;;;5059362;28;20545;-73
2022/12/31 02:32:34;;;;;;;211.70;127.90;;;;;;;;;;5058578;28;20454;-72
2022/12/31 02:35:05;;;;;;;234.70;131.73;;;;;;;;;;5058751;28;20445;-73
2022/12/31 02:37:34;;;;;;;237.40;131.00;;;;;;;;;;5059190;28;20449;-73
2022/12/31 02:40:02;;;;;;;222.67;129.83;;;;;;;;;;5058675;28;20461;-73
2022/12/31 02:42:29;;;;;;;222.30;129.73;;;;;;;;;;5059284;28;20527;-73
2022/12/31 02:44:57;;;;;;;236.80;134.67;;;;;;;;;;5058928;28;20457;-73
2022/12/31 02:47:34;;;;;;;217.03;126.30;;;;;;;;;;5058803;28;20464;-73
2022/12/31 02:50:11;;;;;;;226.63;131.60;;;;;;;;;;5058547;28;20938;-72
2022/12/31 02:52:43;;;;;;;213.07;127.73;;;;;;;;;;5058285;28;20483;-73
2022/12/31 02:55:17;;;;;;;208.40;120.07;;;;;;;;;;5058368;28;20458;-72
2022/12/31 02:57:49;;;;;;;226.70;134.97;;;;;;;;;;5058631;28;20793;-73
2022/12/31 03:02:59;;;;;;;219.00;127.70;;;;;;;;;;5025471;28;20438;-73
2022/12/31 03:05:29;;;;;;;246.10;133.33;;;;;;;;;;5058669;28;20865;-73
2022/12/31 03:07:57;;;;;;;231.87;135.90;;;;;;;;;;5058574;28;20521;-73
2022/12/31 03:10:25;;;;;;;253.70;129.60;;;;;;;;;;5058782;28;20736;-73
2022/12/31 03:12:51;;;;;;;232.13;137.47;;;;;;;;;;5058066;28;20468;-73
2022/12/31 03:15:20;;;;;;;243.67;133.87;;;;;;;;;;5058474;28;20468;-73
2022/12/31 03:17:55;;;;;;;248.57;134.50;;;;;;;;;;5058366;28;20449;-73
2022/12/31 03:23:12;;;;;;;216.57;122.27;;;;;;;;;;5057492;28;20436;-73
2022/12/31 03:25:39;;;;;;;220.40;128.17;;;;;;;;;;5058235;28;20469;-73
2022/12/31 03:28:08;;;;;;;204.27;122.77;;;;;;;;;;5057478;28;20556;-73
2022/12/31 03:30:36;;;;;;;227.87;134.30;;;;;;;;;;5058276;28;20445;-73
2022/12/31 03:33:04;;;;;;;203.83;135.37;;;;;;;;;;5058053;28;20460;-72
2022/12/31 03:35:33;;;;;;;209.40;137.63;;;;;;;;;;5058341;28;20458;-73
2022/12/31 03:38:01;;;;;;;199.40;122.57;;;;;;;;;;5057567;28;20450;-73
2022/12/31 03:40:31;;;;;;;217.47;136.53;;;;;;;;;;5058039;28;20462;-73
2022/12/31 03:42:58;;;;;;;202.90;134.50;;;;;;;;;;5057171;28;20453;-72
2022/12/31 03:45:26;;;;;;;221.60;126.50;;;;;;;;;;5057012;28;20468;-73
2022/12/31 03:47:54;;;;;;;244.67;140.73;;;;;;;;;;5057434;28;20854;-73
2022/12/31 03:50:21;;;;;;;243.30;128.30;;;;;;;;;;5057287;28;20490;-73
2022/12/31 03:52:49;;;;;;;28.53;11.90;;;;;;;;;;5057783;28;20449;-73
2022/12/31 03:55:17;;;;;;;3.80;2.43;;;;;;;;;;5058000;28;20484;-72
2022/12/31 03:57:48;;;;;;;201.37;125.53;;;;;;;;;;5057982;28;20467;-73
2022/12/31 04:00:17;;;;;;;178.50;116.80;;;;;;;;;;5056956;28;20461;-73
2022/12/31 04:02:45;;;;;;;169.30;117.77;;;;;;;;;;5061888;28;20827;-73
2022/12/31 04:05:15;;;;;;;177.93;121.17;;;;;;;;;;5057513;28;20900;-74
2022/12/31 04:07:43;;;;;;;184.73;132.53;;;;;;;;;;5056051;28;20495;-73
2022/12/31 04:10:12;;;;;;;2.90;2.43;;;;;;;;;;5057295;28;21057;-73
2022/12/31 04:12:40;;;;;;;4.77;3.10;;;;;;;;;;5056752;28;20465;-73
2022/12/31 04:15:11;;;;;;;2.47;1.73;;;;;;;;;;5056557;28;20842;-73
2022/12/31 04:17:38;;;;;;;135.80;104.17;;;;;;;;;;5056691;28;20463;-72
2022/12/31 04:20:07;;;;;;;149.50;118.20;;;;;;;;;;5056699;28;20454;-74
2022/12/31 04:22:35;;;;;;;2.67;2.17;;;;;;;;;;5056485;28;20562;-73
2022/12/31 04:25:02;;;;;;;2.87;2.00;;;;;;;;;;5057004;28;20860;-73
2022/12/31 04:27:30;;;;;;;2.30;1.80;;;;;;;;;;5057050;28;20462;-73
2022/12/31 04:29:58;;;;;;;3.30;2.43;;;;;;;;;;5056573;28;20476;-73
2022/12/31 04:32:27;;;;;;;3.30;2.10;;;;;;;;;;5057001;28;20860;-73
2022/12/31 04:34:54;;;;;;;2.87;2.10;;;;;;;;;;5057299;28;20966;-73
2022/12/31 04:37:22;;;;;;;2.40;1.83;;;;;;;;;;5056756;28;20454;-73
2022/12/31 04:39:50;;;;;;;3.03;2.03;;;;;;;;;;5056568;28;20469;-74
2022/12/31 04:42:17;;;;;;;4.40;2.37;;;;;;;;;;5056358;28;20481;-73
2022/12/31 04:44:45;;;;;;;6.33;1.70;;;;;;;;;;5057093;28;20465;-73
2022/12/31 04:47:13;;;;;;;3.23;2.37;;;;;;;;;;5056755;28;21406;-73
2022/12/31 04:49:42;;;;;;;2.20;1.70;;;;;;;;;;5057453;28;20465;-73
2022/12/31 04:52:09;;;;;;;3.37;1.73;;;;;;;;;;5056812;28;20457;-73
2022/12/31 04:54:37;;;;;;;5.53;3.00;;;;;;;;;;5055874;28;20464;-73
2022/12/31 04:57:05;;;;;;;2.70;2.20;;;;;;;;;;5056840;28;20485;-73
2022/12/31 04:59:33;;;;;;;2.53;2.13;;;;;;;;;;5056247;28;20814;-74
2022/12/31 05:02:00;;;;;;;2.37;1.80;;;;;;;;;;5056244;28;20496;-73
2022/12/31 05:04:28;;;;;;;2.87;2.20;;;;;;;;;;5056879;28;20453;-74
2022/12/31 05:06:57;;;;;;;2.60;1.70;;;;;;;;;;5056045;28;20460;-73
2022/12/31 05:09:27;;;;;;;3.50;2.27;;;;;;;;;;5055688;28;20464;-73
2022/12/31 05:11:54;;;;;;;2.77;1.90;;;;;;;;;;5056273;28;20532;-73
2022/12/31 05:14:22;;;;;;;3.03;1.77;;;;;;;;;;5055190;28;20469;-72
2022/12/31 05:16:50;;;;;;;2.53;1.80;;;;;;;;;;5056280;28;20453;-72
2022/12/31 05:19:17;;;;;;;2.50;1.60;;;;;;;;;;5055598;28;20457;-73
2022/12/31 05:22:27;;;;;;;2.67;1.77;;;;;;;;;;5055850;28;20511;-72
2022/12/31 05:24:35;;;;;;;2.33;1.60;;;;;;;;;;5058457;28;20526;-73
2022/12/31 05:27:02;;;;;;;2.40;1.63;;;;;;;;;;5060123;28;20445;-72
2022/12/31 05:29:30;;;;;;;2.60;1.90;;;;;;;;;;5060037;28;20742;-72
2022/12/31 05:31:58;;;;;;;3.43;1.97;;;;;;;;;;5060902;28;20457;-73
2022/12/31 05:34:25;;;;;;;3.57;2.17;;;;;;;;;;5059878;28;20454;-73
2022/12/31 05:36:53;;;;;;;2.00;1.30;;;;;;;;;;5060392;28;20522;-73
2022/12/31 05:39:21;;;;;;;3.20;1.80;;;;;;;;;;5060007;28;20457;-73
2022/12/31 05:41:50;;;;;;;3.50;2.07;;;;;;;;;;5060232;28;20583;-72
2022/12/31 05:44:19;;;;;;;3.47;2.80;;;;;;;;;;5059901;28;20475;-73
2022/12/31 05:46:47;;;;;;;2.57;1.67;;;;;;;;;;5059408;28;20453;-73
2022/12/31 05:49:14;;;;;;;2.50;1.70;;;;;;;;;;5059814;28;20449;-73
2022/12/31 05:51:43;;;;;;;2.77;1.30;;;;;;;;;;5059498;28;20457;-73
2022/12/31 05:54:12;;;;;;;2.20;1.10;;;;;;;;;;5060054;28;20457;-73
2022/12/31 05:56:39;;;;;;;3.37;2.37;;;;;;;;;;5059806;28;20461;-72
2022/12/31 05:59:09;;;;;;;2.07;1.30;;;;;;;;;;5059991;28;20476;-72
2022/12/31 06:01:36;;;;;;;3.40;2.43;;;;;;;;;;5060150;28;20521;-73
2022/12/31 06:04:04;;;;;;;2.10;1.30;;;;;;;;;;5059783;28;20519;-73
2022/12/31 06:06:32;;;;;;;3.27;1.30;;;;;;;;;;5059876;28;20469;-73
2022/12/31 06:09:00;;;;;;;11.00;2.07;;;;;;;;;;5059576;28;20841;-73
2022/12/31 06:11:27;;;;;;;4.50;2.10;;;;;;;;;;5060045;28;20461;-73
2022/12/31 06:13:55;;;;;;;2.73;1.77;;;;;;;;;;5059483;28;20746;-73
2022/12/31 06:16:24;;;;;;;2.10;1.30;;;;;;;;;;5059400;28;20465;-73
2022/12/31 06:18:52;;;;;;;2.87;1.60;;;;;;;;;;5059099;28;20535;-73
2022/12/31 06:21:20;;;;;;;2.10;1.27;;;;;;;;;;5058995;28;20527;-72
2022/12/31 06:23:48;;;;;;;2.53;1.73;;;;;;;;;;5059845;28;20458;-73
2022/12/31 06:26:16;;;;;;;1.80;1.23;;;;;;;;;;5060815;28;20461;-74
2022/12/31 06:28:45;;;;;;;2.73;1.67;;;;;;;;;;5058612;28;20476;-74
2022/12/31 06:31:13;;;;;;;10.23;1.83;;;;;;;;;;5058804;28;20542;-73
2022/12/31 06:33:43;;;;;;;4.53;1.00;;;;;;;;;;5057840;28;20749;-73
2022/12/31 06:36:14;;;;;;;2.20;1.63;;;;;;;;;;5057968;28;20722;-74
2022/12/31 06:38:43;;;;;;;3.87;1.27;;;;;;;;;;5058695;28;20468;-74
2022/12/31 06:41:12;;;;;;;2.43;1.77;;;;;;;;;;5058095;28;20469;-74
2022/12/31 06:43:40;;;;;;;3.47;2.30;;;;;;;;;;5058496;28;20485;-74
2022/12/31 06:46:11;;;;;;;4.80;1.53;;;;;;;;;;5057415;28;20477;-73
2022/12/31 06:48:41;;;;;;;4.07;1.63;;;;;;;;;;5058345;28;20907;-74
2022/12/31 06:51:11;;;;;;;2.27;1.27;;;;;;;;;;5057880;28;20568;-73
2022/12/31 06:53:39;;;;;;;1.60;1.03;;;;;;;;;;5058519;28;20461;-73
2022/12/31 06:56:07;;;;;;;2.10;1.50;;;;;;;;;;5058099;28;20493;-73
2022/12/31 06:58:35;;;;;;;4.53;2.10;;;;;;;;;;5058776;28;20461;-73
2022/12/31 07:01:07;;;;;;;1.97;1.47;;;;;;;;;;5058257;28;20470;-73
2022/12/31 07:03:37;;;;;;;2.30;1.53;;;;;;;;;;5057737;28;20583;-73
2022/12/31 07:06:10;;;;;;;5.13;1.53;;;;;;;;;;5057980;28;20457;-73
2022/12/31 07:08:43;;;;;;;2.53;1.60;;;;;;;;;;5058210;28;20485;-74
2022/12/31 07:11:16;;;;;;;2.53;1.90;;;;;;;;;;5069861;28;20460;-74
2022/12/31 07:13:58;;;;;;;2.37;1.60;;;;;;;;;;5078222;28;20459;-74
2022/12/31 07:16:32;;;;;;;3.80;2.43;;;;;;;;;;5075366;28;20508;-73
2022/12/31 07:19:05;;;;;;;5.20;2.57;;;;;;;;;;5077838;28;20543;-73
2022/12/31 07:21:34;;;;;;;3.40;2.03;;;;;;;;;;5067852;28;20462;-74
2022/12/31 07:24:06;;;;;;;3.07;2.77;;;;;;;;;;5069977;28;20471;-75
2022/12/31 07:26:41;;;;;;;1.73;1.07;;;;;;;;;;5067674;28;20468;-73
2022/12/31 07:29:12;;;;;;;16.43;15.63;;;;;;;;;;5059259;28;20461;-74
2022/12/31 07:31:47;;;;;;;7.23;6.80;;;;;;;;;;5057154;28;20476;-73
2022/12/31 07:34:20;;;;;;;5.33;3.60;;;;;;;;;;5056618;28;20457;-73
2022/12/31 07:36:57;;;;;;;5.73;3.10;;;;;;;;;;5057136;28;20453;-73
2022/12/31 07:39:33;;;;;;;2.53;1.80;;;;;;;;;;5055631;28;20755;-74
2022/12/31 07:42:03;;;;;;;2.20;1.73;;;;;;;;;;5057791;28;20464;-74
2022/12/31 07:44:42;;;;;;;4.47;3.13;;;;;;;;;;5064712;28;20517;-71
2022/12/31 07:47:24;;;;;;;9.10;8.60;;;;;;;;;;5058937;28;20456;-73
2022/12/31 07:49:53;;;;;;;10.43;9.77;;;;;;;;;;5056214;28;20542;-73
2022/12/31 07:52:22;;;;;;;3.50;1.30;;;;;;;;;;5068392;28;20499;-73
2022/12/31 07:55:04;;;;;;;2.23;1.50;;;;;;;;;;5071069;28;20451;-74
2022/12/31 07:57:34;;;;;;;3.07;1.00;;;;;;;;;;5057405;28;20457;-73
2022/12/31 08:00:05;;;;;;;2.50;1.10;;;;;;;;;;5057869;28;20453;-73
2022/12/31 08:02:55;;;;;;;1.90;0.90;;;;;;;;;;5067425;28;20493;-73
2022/12/31 08:05:30;;;;;;;2.30;1.60;;;;;;;;;;5057382;28;20469;-73
2022/12/31 08:08:08;;;;;;;8.60;1.50;;;;;;;;;;5068426;28;20464;-73
2022/12/31 08:10:39;;;;;;;1.90;1.10;;;;;;;;;;5063496;28;20469;-73
2022/12/31 08:13:09;;;;;;;2.90;1.77;;;;;;;;;;5057330;28;20939;-73
2022/12/31 08:15:38;;;;;;;3.10;2.50;;;;;;;;;;5057303;28;20465;-73
2022/12/31 08:18:06;;;;;;;5.50;2.80;;;;;;;;;;5061092;28;20441;-73
2022/12/31 08:20:35;;;;;;;4.33;3.93;;;;;;;;;;5067355;28;20464;-74
2022/12/31 08:23:17;;;;;;;3.13;1.20;;;;;;;;;;5058158;28;20513;-73
2022/12/31 08:25:57;;;;;;;2.67;1.23;;;;;;;;;;5063626;28;20484;-73
2022/12/31 08:28:29;;;;;;;3.10;1.53;;;;;;;;;;5073240;28;20895;-72
2022/12/31 08:31:06;;;;;;;2.20;1.30;;;;;;;;;;5068040;28;20468;-73
2022/12/31 08:33:35;;;;;;;3.07;1.80;;;;;;;;;;5057416;28;20469;-73
2022/12/31 08:36:12;;;;;;;2.93;2.00;;;;;;;;;;5055732;28;20445;-73
2022/12/31 08:38:43;;;;;;;5.23;3.90;;;;;;;;;;5056496;28;20835;-73
2022/12/31 08:41:16;;;;;;;3.60;2.37;;;;;;;;;;5055086;28;20517;-73
2022/12/31 08:43:52;;;;;;;4.53;4.13;;;;;;;;;;5056072;28;20485;-72
2022/12/31 08:46:28;;;;;;;2.90;2.30;;;;;;;;;;5056025;28;20476;-72
2022/12/31 08:48:56;;;;;;;6.80;5.50;;;;;;;;;;5055766;28;20555;-73
2022/12/31 08:51:25;;;;;;;6.23;2.83;;;;;;;;;;5055625;28;20465;-72
2022/12/31 08:53:54;;;;;;;4.23;3.93;;;;;;;;;;5053806;28;20504;-76
2022/12/31 08:56:31;;;;;;;5.07;3.43;;;;;;;;;;5055200;28;21093;-73
2022/12/31 08:59:09;;;;;;;3.87;3.40;;;;;;;;;;5058336;28;20465;-73
2022/12/31 09:01:42;;;;;;;10.10;9.20;;;;;;;;;;5059022;28;20478;-71
2022/12/31 09:04:15;;;;;;;8.37;7.87;;;;;;;;;;5067425;28;20941;-73
2022/12/31 09:06:47;;;;;;;4.13;3.83;;;;;;;;;;5070165;28;20480;-74
2022/12/31 09:09:28;;;;;;;2.73;1.23;;;;;;;;;;5069963;28;20469;-74
2022/12/31 09:12:00;;;;;;;4.83;4.33;;;;;;;;;;5067886;28;20468;-73
2022/12/31 09:14:40;;;;;;;4.23;3.83;;;;;;;;;;5059813;28;20457;-73
2022/12/31 09:17:12;;;;;;;5.10;4.70;;;;;;;;;;5063088;28;20495;-74
2022/12/31 09:19:39;;;;;;;8.90;8.20;;;;;;;;;;5074497;28;20460;-74
2022/12/31 09:22:07;;;;;;;3.33;2.33;;;;;;;;;;5076020;28;20751;-73
2022/12/31 09:24:37;;;;;;;2.40;2.20;;;;;;;;;;5064704;28;20599;-73
2022/12/31 09:27:17;;;;;;;7.77;7.13;;;;;;;;;;5058831;28;20894;-76
2022/12/31 09:29:52;;;;;;;3.37;3.17;;;;;;;;;;5066973;28;20472;-74
2022/12/31 09:32:24;;;;;;;8.23;7.83;;;;;;;;;;5066318;28;20477;-74
2022/12/31 09:34:55;;;;;;;5.70;5.10;;;;;;;;;;5057788;28;20461;-73
2022/12/31 09:37:37;;;;;;;13.63;12.83;;;;;;;;;;5060396;28;20766;-73
2022/12/31 09:40:15;;;;;;;20.90;19.90;;;;;;;;;;5058822;28;20708;-73
2022/12/31 09:42:58;;;;;;;7.33;6.80;;;;;;;;;;5062353;28;20587;-73
2022/12/31 09:45:38;;;;;;;1.40;0.70;;;;;;;;;;5067782;28;20461;-73
2022/12/31 09:48:41;;;;;;;1.60;0.80;;;;;;;;;;5067944;28;20467;-73
2022/12/31 09:51:31;;;;;;;2.43;1.50;;;;;;;;;;5061234;28;20465;-73
2022/12/31 09:54:10;;;;;;;2.30;1.43;;;;;;;;;;5065319;28;20777;-74
2022/12/31 09:56:41;;;;;;;6.83;4.57;;;;;;;;;;5057331;28;20468;-72
2022/12/31 09:59:14;;;;;;;4.00;1.60;;;;;;;;;;5058887;28;20896;-73
2022/12/31 10:01:50;;;;;;;6.60;3.93;;;;;;;;;;5058166;28;20453;-73
2022/12/31 10:04:31;;;;;;;3.90;3.43;;;;;;;;;;5059493;28;20485;-73
2022/12/31 10:07:10;;;;;;;3.57;2.20;;;;;;;;;;5069085;28;20506;-72
2022/12/31 10:09:48;;;;;;;2.83;1.17;;;;;;;;;;5077050;28;20531;-73
2022/12/31 10:12:37;;;;;;;2.07;1.60;;;;;;;;;;5069428;28;20953;-73
2022/12/31 10:15:31;;;;;;;2.67;2.33;;;;;;;;;;5069548;28;20484;-73
2022/12/31 10:18:05;;;;;;;6.63;3.10;;;;;;;;;;5062327;28;20453;-73
2022/12/31 10:20:49;;;;;;;4.27;3.40;;;;;;;;;;5056127;28;20939;-72
2022/12/31 10:23:37;;;;;;;3.67;3.37;;;;;;;;;;5056991;28;20485;-72
2022/12/31 10:26:13;;;;;;;5.47;5.07;;;;;;;;;;5057604;28;20465;-72
2022/12/31 10:28:51;;;;;;;7.67;7.07;;;;;;;;;;5057272;28;20567;-73
2022/12/31 10:31:33;;;;;;;7.83;7.10;;;;;;;;;;5056137;28;20465;-72
2022/12/31 10:34:08;;;;;;;4.37;3.70;;;;;;;;;;5057261;28;20769;-74
2022/12/31 10:36:47;;;;;;;2.40;1.40;;;;;;;;;;5057727;28;20550;-74
2022/12/31 10:39:24;;;;;;;24.17;23.00;;;;;;;;;;5064670;28;20516;-72
2022/12/31 10:42:29;;;;;;;3.93;3.57;;;;;;;;;;5056421;28;20472;-73
2022/12/31 10:45:32;;;;;;;6.70;6.17;;;;;;;;;;4982521;28;20572;-73
2022/12/31 10:48:17;;;;;;;13.00;12.40;;;;;;;;;;5056099;28;20795;-73
2022/12/31 10:50:59;;;;;;;4.43;4.13;;;;;;;;;;5057469;28;21138;-73
2022/12/31 10:53:39;;;;;;;2.80;2.37;;;;;;;;;;5043182;28;20490;-73
2022/12/31 10:56:15;;;;;;;5.90;5.30;;;;;;;;;;5055212;28;20480;-73
2022/12/31 10:58:55;;;;;;;6.63;6.13;;;;;;;;;;5079981;28;20519;-73
2022/12/31 11:01:31;;;;;;;12.87;11.97;;;;;;;;;;5068063;28;20528;-73
2022/12/31 11:04:21;;;;;;;6.03;5.57;;;;;;;;;;5058499;28;20572;-72
2022/12/31 11:07:05;;;;;;;6.63;6.17;;;;;;;;;;5057946;28;20480;-73
2022/12/31 11:10:01;;;;;;;9.60;9.10;;;;;;;;;;5074885;28;20450;-73
2022/12/31 11:12:43;;;;;;;4.60;4.17;;;;;;;;;;5063821;28;20469;-73
2022/12/31 11:15:18;;;;;;;6.43;5.93;;;;;;;;;;5031389;28;20494;-73
2022/12/31 11:17:55;;;;;;;3.13;1.77;;;;;;;;;;5069409;28;20876;-73
2022/12/31 11:20:40;;;;;;;7.50;3.67;;;;;;;;;;5073569;28;20459;-74
2022/12/31 11:23:21;;;;;;;2.50;1.90;;;;;;;;;;5056081;28;20479;-74
2022/12/31 11:26:31;;;;;;;3.10;2.80;;;;;;;;;;5054469;28;20781;-74
2022/12/31 11:29:18;;;;;;;27.73;26.23;;;;;;;;;;5060009;28;20468;-73
2022/12/31 11:31:59;;;;;;;10.57;9.67;;;;;;;;;;5055887;28;20538;-73
2022/12/31 11:34:50;;;;;;;6.60;6.10;;;;;;;;;;5055123;28;20465;-73
2022/12/31 11:37:31;;;;;;;7.97;7.43;;;;;;;;;;5055829;28;20567;-74
2022/12/31 11:40:16;;;;;;;7.70;6.90;;;;;;;;;;5058752;28;20452;-73
2022/12/31 11:43:07;;;;;;;7.50;7.00;;;;;;;;;;5060527;28;20498;-72
2022/12/31 11:45:51;;;;;;;4.30;3.80;;;;;;;;;;5074168;28;20564;-73
2022/12/31 11:48:33;;;;;;;5.27;4.80;;;;;;;;;;5061385;28;20468;-73
2022/12/31 11:51:22;;;;;;;6.83;6.40;;;;;;;;;;5055527;28;20465;-74
2022/12/31 11:54:07;;;;;;;14.30;13.50;;;;;;;;;;5055783;28;20730;-73
2022/12/31 11:56:43;;;;;;;7.33;6.93;;;;;;;;;;5059187;28;20553;-73
2022/12/31 11:59:19;;;;;;;12.07;11.27;;;;;;;;;;5055640;28;20453;-73
2022/12/31 12:01:52;;;;;;;85.20;79.63;;;;;;;;;;5056622;28;20531;-73
2022/12/31 12:04:24;;;;;;;160.63;122.07;;;;;;;;;;5056839;28;20489;-73
2022/12/31 12:06:56;;;;;;;157.93;123.67;;;;;;;;;;5060581;28;20561;-73
2022/12/31 12:09:27;;;;;;;8.40;7.83;;;;;;;;;;5073842;28;20468;-74
2022/12/31 12:11:59;;;;;;;7.03;6.53;;;;;;;;;;5058378;28;20469;-73
2022/12/31 12:14:37;;;;;;;20.33;19.40;;;;;;;;;;5058264;28;20475;-73
2022/12/31 12:17:08;;;;;;;14.17;13.50;;;;;;;;;;5054808;28;20500;-73
2022/12/31 12:19:36;;;;;;;98.53;91.57;;;;;;;;;;5054444;28;20461;-73
2022/12/31 12:22:10;;;;;;;107.87;99.10;;;;;;;;;;5065198;28;20452;-73
2022/12/31 12:24:40;;;;;;;113.70;103.77;;;;;;;;;;5074059;28;20757;-74
2022/12/31 12:27:22;;;;;;;100.77;93.27;;;;;;;;;;5066268;28;20469;-73
2022/12/31 12:29:51;;;;;;;131.37;117.83;;;;;;;;;;5066101;28;20460;-73
2022/12/31 12:32:21;;;;;;;102.67;93.77;;;;;;;;;;5057869;28;20480;-73
2022/12/31 12:34:50;;;;;;;124.07;110.90;;;;;;;;;;5067651;28;20551;-73
2022/12/31 12:37:38;;;;;;;312.87;154.73;;;;;;;;;;5075257;28;20456;-74
2022/12/31 12:40:09;;;;;;;4.63;3.70;;;;;;;;;;5055180;28;20552;-73
2022/12/31 12:42:48;;;;;;;8.20;7.70;;;;;;;;;;5053549;28;20955;-73
2022/12/31 12:45:18;;;;;;;11.73;11.13;;;;;;;;;;5058344;28;20481;-74
2022/12/31 12:47:50;;;;;;;122.60;112.03;;;;;;;;;;5073585;28;20468;-73
2022/12/31 12:50:22;;;;;;;137.20;124.43;;;;;;;;;;5055115;28;20454;-73
2022/12/31 12:53:12;;;;;;;171.80;132.53;;;;;;;;;;5055153;28;20457;-73
2022/12/31 12:55:52;;;;;;;115.87;104.03;;;;;;;;;;5050881;28;20923;-73
2022/12/31 12:58:33;;;;;;;41.93;39.60;;;;;;;;;;5065286;28;21008;-73
2022/12/31 13:01:06;;;;;;;17.83;16.93;;;;;;;;;;5052996;28;20469;-74
2022/12/31 13:04:00;;;;;;;41.27;39.27;;;;;;;;;;5055649;28;20913;-74
2022/12/31 13:06:36;;;;;;;36.90;35.00;;;;;;;;;;5019586;28;20519;-72
2022/12/31 13:09:23;;;;;;;12.47;11.83;;;;;;;;;;5055545;28;20761;-73
2022/12/31 13:12:04;;;;;;;4.33;4.03;;;;;;;;;;5061068;28;20492;-74
2022/12/31 13:15:04;;;;;;;1.50;1.00;;;;;;;;;;5067056;28;20990;-73
2022/12/31 13:17:47;;;;;;;165.37;120.33;;;;;;;;;;5062348;28;20465;-73
2022/12/31 13:20:28;;;;;;;138.23;123.63;;;;;;;;;;5058283;28;20445;-73
2022/12/31 13:23:06;;;;;;;108.80;99.40;;;;;;;;;;5064889;28;20461;-74
2022/12/31 13:28:20;;;;;;;193.43;134.93;;;;;;;;;;5058145;28;20473;-73
2022/12/31 13:30:49;;;;;;;116.87;108.17;;;;;;;;;;5057177;28;20586;-73
2022/12/31 13:33:20;;;;;;;121.20;111.57;;;;;;;;;;5059153;28;20468;-72
2022/12/31 13:35:51;;;;;;;134.50;119.77;;;;;;;;;;5060103;28;20888;-73
2022/12/31 13:38:27;;;;;;;112.93;101.63;;;;;;;;;;5059368;28;20465;-73
2022/12/31 13:40:59;;;;;;;85.70;79.27;;;;;;;;;;5056123;28;20469;-73
2022/12/31 13:43:33;;;;;;;2.10;1.40;;;;;;;;;;5059803;28;20737;-73
2022/12/31 13:46:05;;;;;;;3.37;3.07;;;;;;;;;;5071478;28;20820;-73
2022/12/31 13:48:41;;;;;;;24.60;23.33;;;;;;;;;;5066342;28;20530;-73
2022/12/31 13:51:12;;;;;;;9.33;8.77;;;;;;;;;;5061880;28;20448;-73
2022/12/31 13:53:43;;;;;;;4.40;3.90;;;;;;;;;;5059491;28;20527;-73
2022/12/31 13:56:15;;;;;;;41.30;39.30;;;;;;;;;;5074003;28;20868;-73
2022/12/31 13:58:48;;;;;;;3.50;3.20;;;;;;;;;;5065818;28;20563;-74
2022/12/31 14:01:26;;;;;;;3.47;2.57;;;;;;;;;;5060995;28;20822;-74
2022/12/31 14:04:01;;;;;;;53.30;50.30;;;;;;;;;;5056814;28;20465;-73
2022/12/31 14:06:32;;;;;;;4.07;3.77;;;;;;;;;;5057148;28;20457;-73
2022/12/31 14:09:01;;;;;;;46.80;44.07;;;;;;;;;;5059446;28;20473;-73
2022/12/31 14:11:38;;;;;;;53.40;50.17;;;;;;;;;;5058535;28;20535;-72
2022/12/31 14:14:13;;;;;;;56.70;53.37;;;;;;;;;;5058443;28;20756;-73
2022/12/31 14:16:46;;;;;;;14.83;2.17;;;;;;;;;;5058249;28;20456;-74
2022/12/31 14:19:29;;;;;;;3.00;1.43;;;;;;;;;;5058561;28;20445;-75
2022/12/31 14:22:00;;;;;;;37.67;35.63;;;;;;;;;;5057682;28;20930;-74
2022/12/31 14:24:34;;;;;;;12.17;11.47;;;;;;;;;;5057233;28;20558;-74
2022/12/31 14:27:06;;;;;;;3.60;2.17;;;;;;;;;;5057864;28;20454;-74
2022/12/31 14:29:35;;;;;;;26.90;24.63;;;;;;;;;;5058187;28;20571;-74
2022/12/31 14:32:21;;;;;;;2.50;1.43;;;;;;;;;;5057649;28;20495;-74
2022/12/31 14:34:54;;;;;;;5.23;2.60;;;;;;;;;;5060380;28;20477;-74
2022/12/31 14:37:32;;;;;;;4.90;3.40;;;;;;;;;;5058283;28;20524;-73
2022/12/31 14:40:05;;;;;;;3.90;3.43;;;;;;;;;;5064045;28;20449;-74
2022/12/31 14:42:37;;;;;;;3.03;2.30;;;;;;;;;;5058425;28;20866;-73
2022/12/31 14:45:08;;;;;;;3.80;2.80;;;;;;;;;;5057651;28;20481;-74
2022/12/31 14:47:45;;;;;;;7.90;3.33;;;;;;;;;;5058338;28;20461;-74
2022/12/31 14:50:16;;;;;;;4.63;3.77;;;;;;;;;;5057441;28;20457;-74
2022/12/31 14:52:52;;;;;;;5.47;3.73;;;;;;;;;;5071571;28;20465;-73
2022/12/31 14:55:24;;;;;;;5.10;2.80;;;;;;;;;;5075141;28;20475;-74
2022/12/31 14:57:52;;;;;;;3.57;2.80;;;;;;;;;;5073490;28;20475;-73
2022/12/31 15:00:25;;;;;;;5.40;2.60;;;;;;;;;;5057937;28;20575;-74
2022/12/31 15:02:54;;;;;;;2.87;2.40;;;;;;;;;;5073394;28;20460;-74
2022/12/31 15:05:24;;;;;;;2.83;1.50;;;;;;;;;;5076869;28;20764;-74
2022/12/31 15:08:22;;;;;;;3.97;3.43;;;;;;;;;;5077890;28;20481;-73
2022/12/31 15:11:09;;;;;;;2.57;2.37;;;;;;;;;;4984507;28;20952;-75